»·PEaware :: WAT426 KLAS-KTUS

WAT426 :: KLAS-KTUS

FLIGHT INFORMATION

Flight Status: Arrived
Operator:
Walker Air Transport
More flights by this operator :: More flights under this callsign
Pilot: Anonymous 29304 (29304)
Aircraft: BEECH AIRCRAFT PREMIER
(PRM1)
More flights by this aircraft type
Origin: KLAS McCarran Intl
United States
Destination: KTUS Tucson Intl
United States
More flights between these airports :: More routes between these airports
Route: PRFUM4 DRK J11 PXR DINGO5
File this flight plan on PilotEdge
Remarks:
Altitude:
(Current/Filed)
41,000ft
Speed:
(Current/Filed)
360kts
Departed: 08-Jan-21 11:17 AM
Arrived: 08-Jan-21 12:29 PM
Distance/Time
Traveled:
316nm/1:11
Distance/Time
To Go:
Arrived

Flight Plot

Page will automatically refresh every two minutes.

Flight plan parsing failed; only flown route is shown


Map Options




Map Legend


Flown Route
Filed Route
Departure Airport
Arrival Airport
Navaid (VOR, NDB)
Fix

Horizontal Profiles

Position Reports

Time Latitude Longitude Heading Altitude Ground
Speed
08-Jan-21 10:17 37.357870 -121.930024 334 56ft 0kts
08-Jan-21 10:20 36.098639 -115.161176 115 2104ft 0kts
08-Jan-21 10:21 36.098639 -115.161176 115 2104ft 0kts
08-Jan-21 10:22 36.098639 -115.161176 115 2104ft 0kts
08-Jan-21 10:23 36.098639 -115.161176 115 2104ft 0kts
08-Jan-21 10:24 36.098639 -115.161176 115 2104ft 0kts
08-Jan-21 10:25 36.098639 -115.161176 115 2104ft 0kts
08-Jan-21 10:26 36.098639 -115.161176 115 2104ft 0kts
08-Jan-21 10:27 36.098639 -115.161176 115 2104ft 0kts
08-Jan-21 10:28 36.098639 -115.161176 115 2104ft 0kts
08-Jan-21 10:29 36.098639 -115.161176 115 2104ft 0kts
08-Jan-21 10:30 36.098639 -115.161176 115 2104ft 0kts
08-Jan-21 10:31 36.098639 -115.161176 115 2104ft 0kts
08-Jan-21 10:32 36.098639 -115.161176 115 2104ft 0kts
08-Jan-21 10:33 36.098639 -115.161176 115 2104ft 0kts
08-Jan-21 10:34 36.098639 -115.161176 115 2104ft 0kts
08-Jan-21 10:35 36.098639 -115.161176 115 2104ft 0kts
08-Jan-21 10:36 36.098639 -115.161176 115 2104ft 0kts
08-Jan-21 10:37 36.098639 -115.161176 115 2104ft 0kts
08-Jan-21 10:38 36.098639 -115.161176 115 2104ft 0kts
08-Jan-21 10:39 36.098639 -115.161176 115 2104ft 0kts
08-Jan-21 10:40 36.098639 -115.161176 115 2104ft 0kts
08-Jan-21 10:41 36.098639 -115.161176 115 2104ft 0kts
08-Jan-21 10:42 36.098639 -115.161176 115 2104ft 0kts
08-Jan-21 10:43 36.098639 -115.161176 115 2104ft 0kts
08-Jan-21 10:44 36.098639 -115.161176 115 2104ft 0kts
08-Jan-21 10:45 36.098639 -115.161176 115 2104ft 0kts
08-Jan-21 10:46 36.098639 -115.161176 115 2104ft 0kts
08-Jan-21 10:47 36.098639 -115.161176 115 2104ft 0kts
08-Jan-21 10:48 36.098639 -115.161176 115 2104ft 0kts
08-Jan-21 10:49 36.098639 -115.161176 115 2104ft 0kts
08-Jan-21 10:50 36.098639 -115.161176 115 2104ft 0kts
08-Jan-21 10:51 36.098639 -115.161176 115 2104ft 0kts
08-Jan-21 10:52 36.098639 -115.161176 115 2104ft 0kts
08-Jan-21 10:53 36.098639 -115.161176 115 2104ft 0kts
08-Jan-21 10:54 36.098639 -115.161176 115 2104ft 0kts
08-Jan-21 10:55 36.098639 -115.161176 115 2104ft 0kts
08-Jan-21 10:56 36.098639 -115.161176 115 2104ft 0kts
08-Jan-21 10:57 36.098639 -115.161176 115 2104ft 0kts
08-Jan-21 10:58 36.098639 -115.161176 115 2104ft 0kts
08-Jan-21 11:00 36.098639 -115.161176 115 2104ft 0kts
08-Jan-21 11:01 36.098639 -115.161176 115 2104ft 0kts
08-Jan-21 11:02 36.098639 -115.161176 115 2104ft 0kts
08-Jan-21 11:03 36.098639 -115.161176 115 2104ft 0kts
08-Jan-21 11:04 36.098639 -115.161176 115 2104ft 0kts
08-Jan-21 11:05 36.098639 -115.161176 115 2104ft 0kts
08-Jan-21 11:06 36.098639 -115.161176 115 2104ft 0kts
08-Jan-21 11:07 36.098639 -115.161176 115 2104ft 0kts
08-Jan-21 11:08 36.098639 -115.161176 115 2104ft 0kts
08-Jan-21 11:09 36.098639 -115.161176 115 2104ft 0kts
08-Jan-21 11:10 36.098639 -115.161176 115 2104ft 0kts
08-Jan-21 11:11 36.098639 -115.161176 115 2104ft 0kts
08-Jan-21 11:12 36.098639 -115.161176 115 2104ft 0kts
08-Jan-21 11:13 36.098117 -115.160064 51 2100ft 9kts
08-Jan-21 11:14 36.099792 -115.157917 72 2089ft 0kts
08-Jan-21 11:14 36.099861 -115.157623 81 2089ft 0kts
08-Jan-21 11:16 36.099869 -115.157414 94 2088ft 7kts
08-Jan-21 11:17 36.097699 -115.157566 205 2092ft 58kts
08-Jan-21 11:17 36.067250 -115.176305 205 3137ft 198kts
08-Jan-21 11:18 36.014472 -115.210336 229 5716ft 228kts
08-Jan-21 11:19 35.980903 -115.275421 226 9159ft 235kts
08-Jan-21 11:20 35.915133 -115.279395 164 11489ft 281kts
08-Jan-21 11:21 35.857176 -115.226583 106 14746ft 261kts
08-Jan-21 11:22 35.836851 -115.140248 104 17249ft 268kts
08-Jan-21 11:23 35.823207 -115.048900 83 19230ft 284kts
08-Jan-21 11:24 35.831076 -114.942214 84 20956ft 298kts
08-Jan-21 11:25 35.838646 -114.840983 84 22766ft 306kts
08-Jan-21 11:26 35.846447 -114.734836 85 24449ft 316kts
08-Jan-21 11:27 35.854387 -114.625177 85 26005ft 326kts
08-Jan-21 11:28 35.821783 -114.529582 132 27872ft 301kts
08-Jan-21 11:29 35.775464 -114.445445 132 29893ft 280kts
08-Jan-21 11:30 35.732556 -114.365179 132 31128ft 284kts
08-Jan-21 11:31 35.690380 -114.285899 134 32370ft 279kts
08-Jan-21 11:32 35.648604 -114.207555 135 33514ft 274kts
08-Jan-21 11:33 35.606487 -114.128879 135 34377ft 277kts
08-Jan-21 11:34 35.563920 -114.049471 135 35163ft 281kts
08-Jan-21 11:35 35.520534 -113.968705 135 35900ft 285kts
08-Jan-21 11:36 35.476466 -113.886875 135 36586ft 289kts
08-Jan-21 11:37 35.431860 -113.804263 134 37198ft 293kts
08-Jan-21 11:38 35.386545 -113.720534 134 37765ft 297kts
08-Jan-21 11:39 35.341064 -113.636560 134 38494ft 291kts
08-Jan-21 11:40 35.295890 -113.553606 134 38934ft 295kts
08-Jan-21 11:41 35.250325 -113.469945 134 39474ft 293kts
08-Jan-21 11:42 35.205205 -113.387406 134 39884ft 293kts
08-Jan-21 11:43 35.159637 -113.304221 135 40217ft 294kts
08-Jan-21 11:44 35.116314 -113.225111 136 40846ft 276kts
08-Jan-21 11:45 35.074091 -113.148468 136 41115ft 270kts
08-Jan-21 11:46 35.031673 -113.071745 136 40995ft 280kts
08-Jan-21 11:47 34.986373 -112.989956 134 40507ft 302kts
08-Jan-21 11:48 34.936384 -112.900020 132 39361ft 352kts
08-Jan-21 11:49 34.876776 -112.792687 130 37707ft 406kts
08-Jan-21 11:50 34.811710 -112.675489 129 36541ft 425kts
08-Jan-21 11:51 34.744636 -112.555434 129 35295ft 434kts
08-Jan-21 11:52 34.665027 -112.453548 167 33949ft 404kts
08-Jan-21 11:53 34.556730 -112.417911 170 32010ft 407kts
08-Jan-21 11:54 34.448555 -112.376929 167 30129ft 408kts
08-Jan-21 11:55 34.358028 -112.340316 168 29195ft 392kts
08-Jan-21 11:56 34.255750 -112.299043 167 27369ft 393kts
08-Jan-21 11:57 34.153370 -112.257827 166 24351ft 385kts
08-Jan-21 11:58 34.055043 -112.218242 166 23197ft 360kts
08-Jan-21 11:59 33.962866 -112.181266 167 23196ft 339kts
08-Jan-21 12:00 33.875142 -112.146232 167 23199ft 327kts
08-Jan-21 12:01 33.789970 -112.112264 167 23200ft 320kts
08-Jan-21 12:02 33.706108 -112.078867 167 23200ft 315kts
08-Jan-21 12:03 33.623284 -112.045937 167 23200ft 313kts
08-Jan-21 12:04 33.540640 -112.013173 167 22833ft 321kts
08-Jan-21 12:05 33.453383 -111.978622 166 21203ft 337kts
08-Jan-21 12:06 33.365318 -111.962687 179 21172ft 313kts
08-Jan-21 12:07 33.277520 -111.952791 179 21188ft 321kts
08-Jan-21 12:08 33.188119 -111.942719 179 21201ft 325kts
08-Jan-21 12:09 33.097005 -111.932527 178 20537ft 339kts
08-Jan-21 12:10 33.002486 -111.921906 178 18545ft 342kts
08-Jan-21 12:11 32.909149 -111.911434 178 16542ft 332kts
08-Jan-21 12:12 32.828580 -111.862004 147 15002ft 320kts
08-Jan-21 12:13 32.756455 -111.801590 148 14992ft 317kts
08-Jan-21 12:14 32.684367 -111.742049 148 14991ft 315kts
08-Jan-21 12:15 32.612626 -111.682922 148 14989ft 313kts
08-Jan-21 12:16 32.542740 -111.619065 128 14147ft 336kts
08-Jan-21 12:17 32.486537 -111.530115 128 12967ft 326kts
08-Jan-21 12:18 32.433815 -111.446566 128 12956ft 318kts
08-Jan-21 12:19 32.379871 -111.361537 128 12958ft 329kts
08-Jan-21 12:20 32.337427 -111.265728 86 12023ft 343kts
08-Jan-21 12:21 32.344942 -111.163069 84 9989ft 272kts
08-Jan-21 12:22 32.337415 -111.088544 156 8001ft 225kts
08-Jan-21 12:23 32.278224 -111.093316 190 6082ft 213kts
08-Jan-21 12:24 32.227220 -111.077433 130 5854ft 186kts
08-Jan-21 12:25 32.195562 -111.033008 132 5245ft 183kts
08-Jan-21 12:26 32.161881 -110.993208 131 4166ft 166kts
08-Jan-21 12:27 32.130568 -110.956479 134 2884ft 143kts
08-Jan-21 12:28 32.114714 -110.936548 31 2612ft 10kts
08-Jan-21 12:29 32.115285 -110.936085 0 2612ft 8kts
08-Jan-21 12:30 32.116876 -110.937715 325 2606ft 14kts
08-Jan-21 12:31 32.122024 -110.943806 316 2587ft 35kts
08-Jan-21 12:32 32.124324 -110.945432 229 2579ft 0kts

Navigation Log

Ident Type
Flight plan parsing failed, navigation log unavailable